sensor_id;sensor_type;location;lat;lon;timestamp;pressure;altitude;pressure_sealevel;temperature;humidity
69153;BME280;56261;51.580;4.578;2024-03-17T00:01:12;102387.53;;;7.18;100.00
69153;BME280;56261;51.580;4.578;2024-03-17T00:03:38;102400.13;;;7.27;100.00
69153;BME280;56261;51.580;4.578;2024-03-17T00:06:03;102384.84;;;7.31;100.00
69153;BME280;56261;51.580;4.578;2024-03-17T00:08:29;102393.03;;;7.28;100.00
69153;BME280;56261;51.580;4.578;2024-03-17T00:10:56;102389.97;;;7.21;100.00
69153;BME280;56261;51.580;4.578;2024-03-17T00:13:22;102392.84;;;7.18;100.00
69153;BME280;56261;51.580;4.578;2024-03-17T00:15:48;102386.34;;;7.22;100.00
69153;BME280;56261;51.580;4.578;2024-03-17T00:18:14;102391.56;;;7.24;100.00
69153;BME280;56261;51.580;4.578;2024-03-17T00:20:40;102382.13;;;7.20;100.00
69153;BME280;56261;51.580;4.578;2024-03-17T00:23:05;102390.31;;;7.17;100.00
69153;BME280;56261;51.580;4.578;2024-03-17T00:25:34;102378.41;;;7.10;100.00
69153;BME280;56261;51.580;4.578;2024-03-17T00:28:01;102388.75;;;7.01;100.00
69153;BME280;56261;51.580;4.578;2024-03-17T00:30:26;102376.81;;;7.07;100.00
69153;BME280;56261;51.580;4.578;2024-03-17T00:32:52;102371.53;;;7.07;100.00
69153;BME280;56261;51.580;4.578;2024-03-17T00:35:17;102372.38;;;7.07;100.00
69153;BME280;56261;51.580;4.578;2024-03-17T00:37:48;102376.84;;;6.94;100.00
69153;BME280;56261;51.580;4.578;2024-03-17T00:40:14;102371.75;;;7.04;100.00
69153;BME280;56261;51.580;4.578;2024-03-17T00:42:40;102369.00;;;6.93;100.00
69153;BME280;56261;51.580;4.578;2024-03-17T00:45:06;102371.13;;;6.88;100.00
69153;BME280;56261;51.580;4.578;2024-03-17T00:47:32;102360.00;;;6.70;100.00
69153;BME280;56261;51.580;4.578;2024-03-17T00:49:58;102371.56;;;6.81;100.00
69153;BME280;56261;51.580;4.578;2024-03-17T00:52:23;102364.03;;;6.75;100.00
69153;BME280;56261;51.580;4.578;2024-03-17T00:54:48;102363.72;;;6.80;100.00
69153;BME280;56261;51.580;4.578;2024-03-17T00:57:14;102364.34;;;6.71;100.00
69153;BME280;56261;51.580;4.578;2024-03-17T00:59:41;102365.53;;;6.79;100.00
69153;BME280;56261;51.580;4.578;2024-03-17T01:02:08;102360.91;;;6.94;100.00
69153;BME280;56261;51.580;4.578;2024-03-17T01:04:33;102360.22;;;6.92;100.00
69153;BME280;56261;51.580;4.578;2024-03-17T01:06:59;102340.25;;;6.86;100.00
69153;BME280;56261;51.580;4.578;2024-03-17T01:09:25;102340.69;;;6.80;100.00
69153;BME280;56261;51.580;4.578;2024-03-17T01:11:50;102342.59;;;6.91;100.00
69153;BME280;56261;51.580;4.578;2024-03-17T01:14:15;102335.28;;;6.95;100.00
69153;BME280;56261;51.580;4.578;2024-03-17T01:16:41;102337.38;;;6.90;100.00
69153;BME280;56261;51.580;4.578;2024-03-17T01:19:06;102337.59;;;6.99;100.00
69153;BME280;56261;51.580;4.578;2024-03-17T01:21:32;102335.28;;;6.95;100.00
69153;BME280;56261;51.580;4.578;2024-03-17T01:23:57;102328.56;;;7.02;100.00
69153;BME280;56261;51.580;4.578;2024-03-17T01:26:23;102334.94;;;6.99;100.00
69153;BME280;56261;51.580;4.578;2024-03-17T01:28:49;102329.50;;;7.01;100.00
69153;BME280;56261;51.580;4.578;2024-03-17T01:31:14;102334.19;;;7.10;100.00
69153;BME280;56261;51.580;4.578;2024-03-17T01:33:40;102326.72;;;7.15;100.00
69153;BME280;56261;51.580;4.578;2024-03-17T01:36:06;102319.38;;;7.19;100.00
69153;BME280;56261;51.580;4.578;2024-03-17T01:38:31;102318.66;;;7.17;100.00
69153;BME280;56261;51.580;4.578;2024-03-17T01:40:58;102310.06;;;7.13;100.00
69153;BME280;56261;51.580;4.578;2024-03-17T01:43:24;102319.28;;;7.20;100.00
69153;BME280;56261;51.580;4.578;2024-03-17T01:45:50;102311.56;;;7.17;100.00
69153;BME280;56261;51.580;4.578;2024-03-17T01:48:16;102309.22;;;7.13;100.00
69153;BME280;56261;51.580;4.578;2024-03-17T01:50:44;102307.13;;;7.05;100.00
69153;BME280;56261;51.580;4.578;2024-03-17T01:53:12;102309.34;;;7.11;100.00
69153;BME280;56261;51.580;4.578;2024-03-17T01:55:40;102309.44;;;7.10;100.00
69153;BME280;56261;51.580;4.578;2024-03-17T01:58:07;102294.72;;;7.05;100.00
69153;BME280;56261;51.580;4.578;2024-03-17T02:00:33;102292.56;;;7.11;100.00
69153;BME280;56261;51.580;4.578;2024-03-17T02:03:04;102296.50;;;7.05;100.00
69153;BME280;56261;51.580;4.578;2024-03-17T02:05:29;102296.81;;;7.13;100.00
69153;BME280;56261;51.580;4.578;2024-03-17T02:07:55;102293.59;;;7.21;100.00
69153;BME280;56261;51.580;4.578;2024-03-17T02:10:21;102289.34;;;7.18;100.00
69153;BME280;56261;51.580;4.578;2024-03-17T02:12:47;102290.19;;;7.19;100.00
69153;BME280;56261;51.580;4.578;2024-03-17T02:15:13;102277.16;;;7.16;100.00
69153;BME280;56261;51.580;4.578;2024-03-17T02:17:39;102279.47;;;7.20;100.00
69153;BME280;56261;51.580;4.578;2024-03-17T02:20:05;102277.31;;;7.25;100.00
69153;BME280;56261;51.580;4.578;2024-03-17T02:22:35;102270.34;;;7.24;100.00
69153;BME280;56261;51.580;4.578;2024-03-17T02:25:01;102267.19;;;7.19;100.00
69153;BME280;56261;51.580;4.578;2024-03-17T02:27:27;102265.31;;;7.33;100.00
69153;BME280;56261;51.580;4.578;2024-03-17T02:29:52;102259.97;;;7.21;100.00
69153;BME280;56261;51.580;4.578;2024-03-17T02:32:18;102262.06;;;7.16;100.00
69153;BME280;56261;51.580;4.578;2024-03-17T02:34:46;102268.13;;;7.18;100.00
69153;BME280;56261;51.580;4.578;2024-03-17T02:37:11;102268.31;;;7.28;100.00
69153;BME280;56261;51.580;4.578;2024-03-17T02:39:37;102266.84;;;7.24;100.00
69153;BME280;56261;51.580;4.578;2024-03-17T02:42:05;102254.41;;;7.24;100.00
69153;BME280;56261;51.580;4.578;2024-03-17T02:44:31;102266.53;;;7.16;100.00
69153;BME280;56261;51.580;4.578;2024-03-17T02:47:00;102252.94;;;7.20;100.00
69153;BME280;56261;51.580;4.578;2024-03-17T02:49:27;102256.19;;;7.37;100.00
69153;BME280;56261;51.580;4.578;2024-03-17T02:51:56;102246.44;;;7.24;100.00
69153;BME280;56261;51.580;4.578;2024-03-17T02:54:22;102258.34;;;7.19;100.00
69153;BME280;56261;51.580;4.578;2024-03-17T02:56:48;102261.28;;;7.27;100.00
69153;BME280;56261;51.580;4.578;2024-03-17T02:59:14;102246.78;;;7.20;100.00
69153;BME280;56261;51.580;4.578;2024-03-17T03:01:39;102246.78;;;7.20;100.00
69153;BME280;56261;51.580;4.578;2024-03-17T03:04:05;102242.91;;;7.13;100.00
69153;BME280;56261;51.580;4.578;2024-03-17T03:06:32;102252.44;;;7.15;100.00
69153;BME280;56261;51.580;4.578;2024-03-17T03:08:58;102235.88;;;7.12;100.00
69153;BME280;56261;51.580;4.578;2024-03-17T03:11:23;102230.81;;;7.09;100.00
69153;BME280;56261;51.580;4.578;2024-03-17T03:13:48;102222.03;;;7.08;100.00
69153;BME280;56261;51.580;4.578;2024-03-17T03:16:14;102221.97;;;6.97;100.00
69153;BME280;56261;51.580;4.578;2024-03-17T03:18:40;102230.53;;;7.00;100.00
69153;BME280;56261;51.580;4.578;2024-03-17T03:21:06;102221.72;;;7.00;100.00
69153;BME280;56261;51.580;4.578;2024-03-17T03:23:32;102229.38;;;6.92;100.00
69153;BME280;56261;51.580;4.578;2024-03-17T03:25:58;102225.34;;;6.99;100.00
69153;BME280;56261;51.580;4.578;2024-03-17T03:28:24;102218.34;;;6.98;100.00
69153;BME280;56261;51.580;4.578;2024-03-17T03:30:50;102217.25;;;7.00;100.00
69153;BME280;56261;51.580;4.578;2024-03-17T03:33:17;102202.81;;;7.04;100.00
69153;BME280;56261;51.580;4.578;2024-03-17T03:35:43;102204.78;;;6.90;100.00
69153;BME280;56261;51.580;4.578;2024-03-17T03:38:08;102192.25;;;6.92;100.00
69153;BME280;56261;51.580;4.578;2024-03-17T03:40:34;102200.53;;;6.87;100.00
69153;BME280;56261;51.580;4.578;2024-03-17T03:42:59;102191.75;;;6.86;100.00
69153;BME280;56261;51.580;4.578;2024-03-17T03:45:25;102202.03;;;6.91;100.00
69153;BME280;56261;51.580;4.578;2024-03-17T03:47:50;102196.66;;;6.80;100.00
69153;BME280;56261;51.580;4.578;2024-03-17T03:50:19;102202.19;;;6.77;100.00
69153;BME280;56261;51.580;4.578;2024-03-17T03:52:44;102187.66;;;6.70;100.00
69153;BME280;56261;51.580;4.578;2024-03-17T03:55:11;102189.03;;;6.75;100.00
69153;BME280;56261;51.580;4.578;2024-03-17T03:57:36;102184.38;;;6.79;100.00
69153;BME280;56261;51.580;4.578;2024-03-17T04:00:06;102180.50;;;6.59;100.00
69153;BME280;56261;51.580;4.578;2024-03-17T04:02:41;102187.56;;;6.71;100.00
69153;BME280;56261;51.580;4.578;2024-03-17T04:05:08;102183.66;;;6.64;100.00
69153;BME280;56261;51.580;4.578;2024-03-17T04:07:33;102190.53;;;6.67;100.00
69153;BME280;56261;51.580;4.578;2024-03-17T04:10:00;102178.53;;;6.74;100.00
69153;BME280;56261;51.580;4.578;2024-03-17T04:12:25;102186.09;;;6.67;100.00
69153;BME280;56261;51.580;4.578;2024-03-17T04:14:51;102188.00;;;6.65;100.00
69153;BME280;56261;51.580;4.578;2024-03-17T04:17:19;102193.19;;;6.67;100.00
69153;BME280;56261;51.580;4.578;2024-03-17T04:19:47;102179.31;;;6.63;100.00
69153;BME280;56261;51.580;4.578;2024-03-17T04:22:13;102175.41;;;6.56;100.00
69153;BME280;56261;51.580;4.578;2024-03-17T04:24:38;102176.03;;;6.59;100.00
69153;BME280;56261;51.580;4.578;2024-03-17T04:27:04;102185.47;;;6.63;100.00
69153;BME280;56261;51.580;4.578;2024-03-17T04:29:29;102179.53;;;6.60;100.00
69153;BME280;56261;51.580;4.578;2024-03-17T04:31:55;102180.09;;;6.52;100.00
69153;BME280;56261;51.580;4.578;2024-03-17T04:34:20;102176.06;;;6.47;100.00
69153;BME280;56261;51.580;4.578;2024-03-17T04:36:46;102179.47;;;6.49;100.00
69153;BME280;56261;51.580;4.578;2024-03-17T04:39:12;102169.19;;;6.44;100.00
69153;BME280;56261;51.580;4.578;2024-03-17T04:41:37;102161.56;;;6.52;100.00
69153;BME280;56261;51.580;4.578;2024-03-17T04:44:05;102159.09;;;6.49;100.00
69153;BME280;56261;51.580;4.578;2024-03-17T04:46:32;102169.59;;;6.51;100.00
69153;BME280;56261;51.580;4.578;2024-03-17T04:48:57;102153.63;;;6.39;100.00
69153;BME280;56261;51.580;4.578;2024-03-17T04:51:23;102160.72;;;6.39;100.00
69153;BME280;56261;51.580;4.578;2024-03-17T04:53:48;102167.94;;;6.37;100.00
69153;BME280;56261;51.580;4.578;2024-03-17T04:56:14;102162.50;;;6.38;100.00
69153;BME280;56261;51.580;4.578;2024-03-17T04:58:39;102169.94;;;6.46;100.00
69153;BME280;56261;51.580;4.578;2024-03-17T05:01:08;102162.81;;;6.47;100.00
69153;BME280;56261;51.580;4.578;2024-03-17T05:03:34;102161.25;;;6.44;100.00
69153;BME280;56261;51.580;4.578;2024-03-17T05:06:01;102157.22;;;6.38;100.00
69153;BME280;56261;51.580;4.578;2024-03-17T05:08:26;102154.06;;;6.33;100.00
69153;BME280;56261;51.580;4.578;2024-03-17T05:10:59;102160.31;;;6.32;100.00
69153;BME280;56261;51.580;4.578;2024-03-17T05:13:28;102139.22;;;6.31;100.00
69153;BME280;56261;51.580;4.578;2024-03-17T05:15:54;102151.00;;;6.27;100.00
69153;BME280;56261;51.580;4.578;2024-03-17T05:18:20;102149.09;;;6.29;100.00
69153;BME280;56261;51.580;4.578;2024-03-17T05:20:47;102149.50;;;6.35;100.00
69153;BME280;56261;51.580;4.578;2024-03-17T05:23:13;102160.59;;;6.40;100.00
69153;BME280;56261;51.580;4.578;2024-03-17T05:25:39;102152.16;;;6.35;100.00
69153;BME280;56261;51.580;4.578;2024-03-17T05:28:04;102149.16;;;6.40;100.00
69153;BME280;56261;51.580;4.578;2024-03-17T05:30:30;102146.59;;;6.51;100.00
69153;BME280;56261;51.580;4.578;2024-03-17T05:32:56;102149.44;;;6.61;100.00
69153;BME280;56261;51.580;4.578;2024-03-17T05:35:21;102154.75;;;6.61;100.00
69153;BME280;56261;51.580;4.578;2024-03-17T05:37:48;102156.81;;;6.69;100.00
69153;BME280;56261;51.580;4.578;2024-03-17T05:40:14;102155.66;;;6.73;100.00
69153;BME280;56261;51.580;4.578;2024-03-17T05:42:41;102145.44;;;6.79;100.00
69153;BME280;56261;51.580;4.578;2024-03-17T05:45:09;102148.69;;;6.83;100.00
69153;BME280;56261;51.580;4.578;2024-03-17T05:47:37;102152.81;;;6.87;100.00
69153;BME280;56261;51.580;4.578;2024-03-17T05:50:03;102156.94;;;6.91;100.00
69153;BME280;56261;51.580;4.578;2024-03-17T05:52:28;102161.16;;;6.94;100.00
69153;BME280;56261;51.580;4.578;2024-03-17T05:54:53;102143.44;;;6.94;100.00
69153;BME280;56261;51.580;4.578;2024-03-17T05:57:21;102158.56;;;7.05;100.00
69153;BME280;56261;51.580;4.578;2024-03-17T05:59:47;102157.81;;;7.03;100.00
69153;BME280;56261;51.580;4.578;2024-03-17T06:02:13;102167.38;;;7.05;100.00
69153;BME280;56261;51.580;4.578;2024-03-17T06:04:40;102163.41;;;7.11;100.00
69153;BME280;56261;51.580;4.578;2024-03-17T06:07:05;102166.16;;;7.34;100.00
69153;BME280;56261;51.580;4.578;2024-03-17T06:09:31;102168.22;;;7.30;100.00
69153;BME280;56261;51.580;4.578;2024-03-17T06:11:57;102154.44;;;7.36;100.00
69153;BME280;56261;51.580;4.578;2024-03-17T06:14:22;102158.28;;;7.32;100.00
69153;BME280;56261;51.580;4.578;2024-03-17T06:16:47;102137.59;;;7.37;100.00
69153;BME280;56261;51.580;4.578;2024-03-17T06:19:13;102154.00;;;7.42;100.00
69153;BME280;56261;51.580;4.578;2024-03-17T06:21:38;102150.03;;;7.48;100.00
69153;BME280;56261;51.580;4.578;2024-03-17T06:24:04;102151.25;;;7.55;100.00
69153;BME280;56261;51.580;4.578;2024-03-17T06:26:32;102147.16;;;7.62;100.00
69153;BME280;56261;51.580;4.578;2024-03-17T06:29:02;102132.22;;;7.73;100.00
69153;BME280;56261;51.580;4.578;2024-03-17T06:31:27;102124.25;;;7.73;100.00
69153;BME280;56261;51.580;4.578;2024-03-17T06:33:53;102124.94;;;7.75;100.00
69153;BME280;56261;51.580;4.578;2024-03-17T06:36:18;102102.03;;;7.62;100.00
69153;BME280;56261;51.580;4.578;2024-03-17T06:38:43;102109.16;;;7.73;100.00
69153;BME280;56261;51.580;4.578;2024-03-17T06:41:11;102113.28;;;7.77;100.00
69153;BME280;56261;51.580;4.578;2024-03-17T06:43:40;102117.25;;;7.83;100.00
69153;BME280;56261;51.580;4.578;2024-03-17T06:46:07;102109.25;;;8.05;100.00
69153;BME280;56261;51.580;4.578;2024-03-17T06:48:33;102116.75;;;8.00;100.00
69153;BME280;56261;51.580;4.578;2024-03-17T06:50:59;102108.41;;;8.16;100.00
69153;BME280;56261;51.580;4.578;2024-03-17T06:53:24;102115.28;;;8.19;100.00
69153;BME280;56261;51.580;4.578;2024-03-17T06:55:59;102126.66;;;8.43;100.00
69153;BME280;56261;51.580;4.578;2024-03-17T06:58:26;102113.13;;;8.46;100.00
69153;BME280;56261;51.580;4.578;2024-03-17T07:00:56;102121.69;;;8.50;100.00
69153;BME280;56261;51.580;4.578;2024-03-17T07:03:23;102127.50;;;8.55;100.00
69153;BME280;56261;51.580;4.578;2024-03-17T07:05:59;102123.72;;;8.58;100.00
69153;BME280;56261;51.580;4.578;2024-03-17T07:08:28;102123.25;;;8.52;100.00
69153;BME280;56261;51.580;4.578;2024-03-17T07:11:00;102129.63;;;8.61;100.00
69153;BME280;56261;51.580;4.578;2024-03-17T07:13:29;102118.06;;;8.83;100.00
69153;BME280;56261;51.580;4.578;2024-03-17T07:15:54;102128.25;;;8.78;100.00
69153;BME280;56261;51.580;4.578;2024-03-17T07:18:20;102136.34;;;8.77;100.00
69153;BME280;56261;51.580;4.578;2024-03-17T07:20:45;102141.00;;;8.63;100.00
69153;BME280;56261;51.580;4.578;2024-03-17T07:23:13;102145.81;;;8.69;100.00
69153;BME280;56261;51.580;4.578;2024-03-17T07:25:39;102135.19;;;8.69;100.00
69153;BME280;56261;51.580;4.578;2024-03-17T07:28:05;102146.28;;;8.75;100.00
69153;BME280;56261;51.580;4.578;2024-03-17T07:30:30;102149.06;;;8.84;100.00
69153;BME280;56261;51.580;4.578;2024-03-17T07:32:55;102150.25;;;8.80;100.00
69153;BME280;56261;51.580;4.578;2024-03-17T07:35:21;102153.16;;;8.77;100.00
69153;BME280;56261;51.580;4.578;2024-03-17T07:37:46;102150.75;;;8.74;100.00
69153;BME280;56261;51.580;4.578;2024-03-17T07:40:12;102151.72;;;8.84;100.00
69153;BME280;56261;51.580;4.578;2024-03-17T07:42:37;102138.28;;;8.75;100.00
69153;BME280;56261;51.580;4.578;2024-03-17T07:45:03;102147.13;;;8.75;100.00
69153;BME280;56261;51.580;4.578;2024-03-17T07:47:29;102146.56;;;8.92;100.00
69153;BME280;56261;51.580;4.578;2024-03-17T07:50:02;102142.81;;;8.95;100.00
69153;BME280;56261;51.580;4.578;2024-03-17T07:52:30;102147.41;;;9.25;100.00
69153;BME280;56261;51.580;4.578;2024-03-17T07:54:56;102147.41;;;9.04;100.00
69153;BME280;56261;51.580;4.578;2024-03-17T07:57:21;102149.56;;;8.99;100.00
69153;BME280;56261;51.580;4.578;2024-03-17T07:59:49;102148.47;;;9.02;100.00
69153;BME280;56261;51.580;4.578;2024-03-17T08:02:16;102147.63;;;9.01;100.00
69153;BME280;56261;51.580;4.578;2024-03-17T08:04:42;102157.19;;;9.04;100.00
69153;BME280;56261;51.580;4.578;2024-03-17T08:07:07;102149.56;;;8.99;100.00
69153;BME280;56261;51.580;4.578;2024-03-17T08:09:33;102165.34;;;8.91;100.00
69153;BME280;56261;51.580;4.578;2024-03-17T08:11:58;102163.91;;;8.87;100.00
69153;BME280;56261;51.580;4.578;2024-03-17T08:14:23;102161.84;;;8.79;100.00
69153;BME280;56261;51.580;4.578;2024-03-17T08:16:49;102155.44;;;8.93;100.00
69153;BME280;56261;51.580;4.578;2024-03-17T08:19:14;102161.22;;;8.98;100.00
69153;BME280;56261;51.580;4.578;2024-03-17T08:21:39;102153.22;;;8.98;100.00
69153;BME280;56261;51.580;4.578;2024-03-17T08:24:05;102155.97;;;9.08;100.00
69153;BME280;56261;51.580;4.578;2024-03-17T08:26:30;102153.72;;;9.24;100.00
69153;BME280;56261;51.580;4.578;2024-03-17T08:28:56;102152.81;;;9.35;100.00
69153;BME280;56261;51.580;4.578;2024-03-17T08:31:22;102154.00;;;9.42;100.00
69153;BME280;56261;51.580;4.578;2024-03-17T08:33:47;102147.34;;;9.57;100.00
69153;BME280;56261;51.580;4.578;2024-03-17T08:36:16;102141.50;;;9.64;100.00
69153;BME280;56261;51.580;4.578;2024-03-17T08:38:43;102151.31;;;9.63;100.00
69153;BME280;56261;51.580;4.578;2024-03-17T08:41:10;102140.53;;;9.65;100.00
69153;BME280;56261;51.580;4.578;2024-03-17T08:43:36;102145.03;;;9.95;100.00
69153;BME280;56261;51.580;4.578;2024-03-17T08:46:07;102135.25;;;10.05;100.00
69153;BME280;56261;51.580;4.578;2024-03-17T08:48:40;102134.69;;;10.32;100.00
69153;BME280;56261;51.580;4.578;2024-03-17T08:51:08;102135.63;;;10.31;100.00
69153;BME280;56261;51.580;4.578;2024-03-17T08:53:34;102120.81;;;10.48;100.00
69153;BME280;56261;51.580;4.578;2024-03-17T08:56:00;102113.94;;;10.55;100.00
69153;BME280;56261;51.580;4.578;2024-03-17T08:58:27;102127.88;;;10.69;100.00
69153;BME280;56261;51.580;4.578;2024-03-17T09:00:52;102121.97;;;10.75;100.00
69153;BME280;56261;51.580;4.578;2024-03-17T09:03:18;102124.25;;;10.99;100.00
69153;BME280;56261;51.580;4.578;2024-03-17T09:05:46;102115.50;;;11.07;100.00
69153;BME280;56261;51.580;4.578;2024-03-17T09:08:23;102114.41;;;10.99;100.00
69153;BME280;56261;51.580;4.578;2024-03-17T09:10:51;102107.38;;;10.98;100.00
69153;BME280;56261;51.580;4.578;2024-03-17T09:13:22;102114.13;;;11.12;100.00
69153;BME280;56261;51.580;4.578;2024-03-17T09:15:53;102115.81;;;11.23;100.00
69153;BME280;56261;51.580;4.578;2024-03-17T09:18:19;102113.38;;;11.39;100.00
69153;BME280;56261;51.580;4.578;2024-03-17T09:20:44;102111.53;;;11.40;100.00
69153;BME280;56261;51.580;4.578;2024-03-17T09:23:11;102118.81;;;11.57;100.00
69153;BME280;56261;51.580;4.578;2024-03-17T09:25:36;102122.53;;;11.27;100.00
69153;BME280;56261;51.580;4.578;2024-03-17T09:28:02;102115.47;;;11.46;100.00
69153;BME280;56261;51.580;4.578;2024-03-17T09:30:27;102110.38;;;11.62;100.00
69153;BME280;56261;51.580;4.578;2024-03-17T09:32:53;102098.00;;;11.61;100.00
69153;BME280;56261;51.580;4.578;2024-03-17T09:35:18;102099.34;;;11.75;100.00
69153;BME280;56261;51.580;4.578;2024-03-17T09:37:43;102101.97;;;11.84;100.00
69153;BME280;56261;51.580;4.578;2024-03-17T09:40:15;102103.31;;;11.71;100.00
69153;BME280;56261;51.580;4.578;2024-03-17T09:42:41;102095.53;;;11.77;100.00
69153;BME280;56261;51.580;4.578;2024-03-17T09:45:10;102097.22;;;11.78;100.00
69153;BME280;56261;51.580;4.578;2024-03-17T09:47:36;102101.78;;;11.68;100.00
69153;BME280;56261;51.580;4.578;2024-03-17T09:50:02;102089.59;;;11.93;100.00
69153;BME280;56261;51.580;4.578;2024-03-17T09:52:27;102088.56;;;12.04;100.00
69153;BME280;56261;51.580;4.578;2024-03-17T09:54:58;102086.59;;;12.06;100.00
69153;BME280;56261;51.580;4.578;2024-03-17T09:57:24;102087.53;;;12.15;100.00
69153;BME280;56261;51.580;4.578;2024-03-17T09:59:51;102093.13;;;12.21;100.00
69153;BME280;56261;51.580;4.578;2024-03-17T10:02:17;102079.53;;;12.33;100.00
69153;BME280;56261;51.580;4.578;2024-03-17T10:04:46;102082.75;;;12.54;100.00
69153;BME280;56261;51.580;4.578;2024-03-17T10:07:11;102081.94;;;12.54;100.00
69153;BME280;56261;51.580;4.578;2024-03-17T10:09:37;102080.72;;;12.66;100.00
69153;BME280;56261;51.580;4.578;2024-03-17T10:12:03;102075.81;;;12.61;100.00
69153;BME280;56261;51.580;4.578;2024-03-17T10:14:28;102071.13;;;12.63;100.00
69153;BME280;56261;51.580;4.578;2024-03-17T10:16:54;102080.84;;;12.82;100.00
69153;BME280;56261;51.580;4.578;2024-03-17T10:19:24;102066.75;;;12.98;100.00
69153;BME280;56261;51.580;4.578;2024-03-17T10:21:50;102078.72;;;13.04;100.00
69153;BME280;56261;51.580;4.578;2024-03-17T10:24:27;102075.59;;;13.17;100.00
69153;BME280;56261;51.580;4.578;2024-03-17T10:26:58;102081.16;;;13.41;100.00
69153;BME280;56261;51.580;4.578;2024-03-17T10:29:33;102075.59;;;13.17;100.00
69153;BME280;56261;51.580;4.578;2024-03-17T10:32:14;102074.31;;;13.03;100.00
69153;BME280;56261;51.580;4.578;2024-03-17T10:34:41;102072.22;;;12.88;100.00
69153;BME280;56261;51.580;4.578;2024-03-17T10:37:14;102074.66;;;12.82;100.00
69153;BME280;56261;51.580;4.578;2024-03-17T10:39:41;102073.81;;;12.81;100.00
69153;BME280;56261;51.580;4.578;2024-03-17T10:42:08;102067.09;;;12.77;100.00
69153;BME280;56261;51.580;4.578;2024-03-17T10:44:41;102070.28;;;12.63;100.00
69153;BME280;56261;51.580;4.578;2024-03-17T10:47:26;102072.59;;;12.58;100.00
69153;BME280;56261;51.580;4.578;2024-03-17T10:49:54;102056.91;;;12.81;100.00
69153;BME280;56261;51.580;4.578;2024-03-17T10:52:22;102063.03;;;12.91;100.00
69153;BME280;56261;51.580;4.578;2024-03-17T10:54:52;102059.19;;;12.94;100.00
69153;BME280;56261;51.580;4.578;2024-03-17T10:59:49;102064.09;;;12.98;100.00
69153;BME280;56261;51.580;4.578;2024-03-17T11:02:27;102064.78;;;13.00;100.00
69153;BME280;56261;51.580;4.578;2024-03-17T11:05:02;102056.41;;;13.03;100.00
69153;BME280;56261;51.580;4.578;2024-03-17T11:07:28;102056.22;;;13.23;100.00
69153;BME280;56261;51.580;4.578;2024-03-17T11:09:56;102060.28;;;13.27;100.00
69153;BME280;56261;51.580;4.578;2024-03-17T11:12:51;102039.81;;;13.26;100.00
69153;BME280;56261;51.580;4.578;2024-03-17T11:17:46;102039.72;;;13.62;100.00
69153;BME280;56261;51.580;4.578;2024-03-17T11:20:15;102046.63;;;13.64;100.00
69153;BME280;56261;51.580;4.578;2024-03-17T11:22:43;102040.06;;;13.59;100.00
69153;BME280;56261;51.580;4.578;2024-03-17T11:28:00;102044.88;;;13.89;100.00
69153;BME280;56261;51.580;4.578;2024-03-17T11:30:43;102044.22;;;13.87;100.00
69153;BME280;56261;51.580;4.578;2024-03-17T11:39:03;102035.53;;;14.02;100.00
69153;BME280;56261;51.580;4.578;2024-03-17T11:47:13;102027.00;;;13.64;100.00
69153;BME280;56261;51.580;4.578;2024-03-17T11:49:41;102027.19;;;13.62;100.00
69153;BME280;56261;51.580;4.578;2024-03-17T11:52:12;102020.31;;;13.68;100.00
69153;BME280;56261;51.580;4.578;2024-03-17T11:54:40;102012.25;;;13.60;100.00
69153;BME280;56261;51.580;4.578;2024-03-17T11:57:27;102015.72;;;13.86;100.00
69153;BME280;56261;51.580;4.578;2024-03-17T11:59:54;102003.63;;;13.90;100.00
69153;BME280;56261;51.580;4.578;2024-03-17T12:02:29;101999.28;;;13.89;100.00
69153;BME280;56261;51.580;4.578;2024-03-17T12:04:57;102005.44;;;13.74;100.00
69153;BME280;56261;51.580;4.578;2024-03-17T12:07:23;102000.09;;;13.82;100.00
69153;BME280;56261;51.580;4.578;2024-03-17T12:09:52;102001.44;;;13.86;100.00
69153;BME280;56261;51.580;4.578;2024-03-17T12:12:25;101998.97;;;13.93;100.00
69153;BME280;56261;51.580;4.578;2024-03-17T12:15:00;101999.97;;;14.00;100.00
69153;BME280;56261;51.580;4.578;2024-03-17T12:17:25;101995.81;;;14.05;100.00
69153;BME280;56261;51.580;4.578;2024-03-17T12:19:52;101986.13;;;14.21;100.00
69153;BME280;56261;51.580;4.578;2024-03-17T12:22:19;101987.97;;;14.28;100.00
69153;BME280;56261;51.580;4.578;2024-03-17T12:24:49;101978.94;;;14.70;100.00
69153;BME280;56261;51.580;4.578;2024-03-17T12:27:20;101965.50;;;14.87;100.00
69153;BME280;56261;51.580;4.578;2024-03-17T12:29:48;101976.25;;;14.54;100.00
69153;BME280;56261;51.580;4.578;2024-03-17T12:32:24;101963.97;;;14.35;100.00
69153;BME280;56261;51.580;4.578;2024-03-17T12:34:52;101960.28;;;14.44;100.00
69153;BME280;56261;51.580;4.578;2024-03-17T12:37:20;101971.19;;;14.26;100.00
69153;BME280;56261;51.580;4.578;2024-03-17T12:39:45;101974.72;;;14.19;100.00
69153;BME280;56261;51.580;4.578;2024-03-17T12:42:13;101978.09;;;14.29;100.00
69153;BME280;56261;51.580;4.578;2024-03-17T12:44:51;101962.97;;;14.20;100.00
69153;BME280;56261;51.580;4.578;2024-03-17T12:47:27;101957.44;;;14.46;100.00
69153;BME280;56261;51.580;4.578;2024-03-17T12:49:58;101967.22;;;14.71;100.00
69153;BME280;56261;51.580;4.578;2024-03-17T12:52:30;101955.63;;;14.63;100.00
69153;BME280;56261;51.580;4.578;2024-03-17T12:55:03;101953.44;;;14.83;100.00
69153;BME280;56261;51.580;4.578;2024-03-17T12:57:52;101932.63;;;14.52;100.00
69153;BME280;56261;51.580;4.578;2024-03-17T13:00:37;101948.41;;;14.55;100.00
69153;BME280;56261;51.580;4.578;2024-03-17T13:03:06;101937.66;;;14.47;100.00
69153;BME280;56261;51.580;4.578;2024-03-17T13:05:33;101942.22;;;14.55;100.00
69153;BME280;56261;51.580;4.578;2024-03-17T13:07:59;101942.00;;;14.48;100.00